createdAt,value
2023-07-04T00:01:26.605Z,20.20
2023-07-04T00:03:57.339Z,20.22
2023-07-04T00:06:31.244Z,20.24
2023-07-04T00:08:59.548Z,20.26
2023-07-04T00:11:30.041Z,20.28
2023-07-04T00:13:58.858Z,20.30
2023-07-04T00:16:28.041Z,20.33
2023-07-04T00:18:56.693Z,20.35
2023-07-04T00:21:25.804Z,20.35
2023-07-04T00:23:54.844Z,20.37
2023-07-04T00:26:26.567Z,20.38
2023-07-04T00:28:55.446Z,20.39
2023-07-04T00:31:26.224Z,20.39
2023-07-04T00:33:55.463Z,20.39
2023-07-04T00:36:24.385Z,20.40
2023-07-04T00:38:58.505Z,20.39
2023-07-04T00:41:30.391Z,20.38
2023-07-04T00:44:08.941Z,20.36
2023-07-04T00:46:42.996Z,20.36
2023-07-04T00:49:20.148Z,20.35
2023-07-04T00:52:05.435Z,20.35
2023-07-04T00:54:46.526Z,20.35
2023-07-04T00:57:15.967Z,20.33
2023-07-04T00:59:52.997Z,20.32
2023-07-04T01:02:24.677Z,20.30
2023-07-04T01:04:54.414Z,20.27
2023-07-04T01:07:38.185Z,20.24
2023-07-04T01:10:14.268Z,20.16
2023-07-04T01:12:42.657Z,20.11
2023-07-04T01:15:11.754Z,20.06
2023-07-04T01:17:43.607Z,20.00
2023-07-04T01:20:17.173Z,19.95
2023-07-04T01:22:45.597Z,19.90
2023-07-04T01:25:31.901Z,19.85
2023-07-04T01:28:04.156Z,19.81
2023-07-04T01:30:37.774Z,19.78
2023-07-04T01:33:07.440Z,19.74
2023-07-04T01:35:38.043Z,19.70
2023-07-04T01:38:07.539Z,19.67
2023-07-04T01:40:37.143Z,19.63
2023-07-04T01:43:07.153Z,19.61
2023-07-04T01:45:35.787Z,19.56
2023-07-04T01:48:05.133Z,19.50
2023-07-04T01:50:33.827Z,19.46
2023-07-04T01:53:02.210Z,19.44
2023-07-04T01:55:30.594Z,19.41
2023-07-04T01:57:59.398Z,19.39
2023-07-04T02:00:28.123Z,19.37
2023-07-04T02:02:57.519Z,19.34
2023-07-04T02:05:27.580Z,19.33
2023-07-04T02:07:55.914Z,19.31
2023-07-04T02:10:24.352Z,19.30
2023-07-04T02:12:52.735Z,19.28
2023-07-04T02:15:21.570Z,19.26
2023-07-04T02:17:50.192Z,19.24
2023-07-04T02:20:20.934Z,19.20
2023-07-04T02:22:49.273Z,19.18
2023-07-04T02:25:17.756Z,19.16
2023-07-04T02:27:46.504Z,19.16
2023-07-04T02:30:15.086Z,19.16
2023-07-04T02:32:44.124Z,19.16
2023-07-04T02:35:15.563Z,19.18
2023-07-04T02:37:44.544Z,19.19
2023-07-04T02:40:13.311Z,19.20
2023-07-04T02:42:42.217Z,19.23
2023-07-04T02:45:11.685Z,19.27
2023-07-04T02:47:41.271Z,19.30
2023-07-04T02:50:12.915Z,19.35
2023-07-04T02:52:41.678Z,19.39
2023-07-04T02:55:10.249Z,19.44
2023-07-04T02:57:39.017Z,19.48
2023-07-04T03:00:08.341Z,19.53
2023-07-04T03:02:37.651Z,19.56
2023-07-04T03:05:07.762Z,19.59
2023-07-04T03:07:36.998Z,19.63
2023-07-04T03:11:06.215Z,19.69
2023-07-04T03:14:38.343Z,19.80
2023-07-04T03:17:07.226Z,19.90
2023-07-04T03:19:36.552Z,19.98
2023-07-04T03:22:05.742Z,20.08
2023-07-04T03:24:34.727Z,20.19
2023-07-04T03:27:03.322Z,20.31
2023-07-04T03:29:32.002Z,20.42
2023-07-04T03:32:00.688Z,20.52
2023-07-04T03:34:29.074Z,20.63
2023-07-04T03:36:57.553Z,20.74
2023-07-04T03:39:25.893Z,20.85
2023-07-04T03:41:54.638Z,20.97
2023-07-04T03:44:23.550Z,21.08
2023-07-04T03:46:53.065Z,21.19
2023-07-04T03:49:21.605Z,21.30
2023-07-04T03:51:49.980Z,21.42
2023-07-04T03:54:18.727Z,21.49
2023-07-04T03:56:48.293Z,21.54
2023-07-04T03:59:16.969Z,21.59
2023-07-04T04:01:46.546Z,21.63
2023-07-04T04:04:15.105Z,21.68
2023-07-04T04:06:43.961Z,21.74
2023-07-04T04:09:12.848Z,21.80
2023-07-04T04:11:41.334Z,21.87
2023-07-04T04:14:11.036Z,21.92
2023-07-04T04:16:39.563Z,21.94
2023-07-04T04:19:08.108Z,21.98
2023-07-04T04:21:36.895Z,22.03
2023-07-04T04:24:05.785Z,22.09
2023-07-04T04:26:39.414Z,22.16
2023-07-04T04:29:08.644Z,22.25
2023-07-04T04:31:38.744Z,22.32
2023-07-04T04:34:08.334Z,22.42
2023-07-04T04:36:36.880Z,22.53
2023-07-04T04:39:06.420Z,22.61
2023-07-04T04:41:35.357Z,22.71
2023-07-04T04:44:05.783Z,22.81
2023-07-04T04:46:34.968Z,22.90
2023-07-04T04:49:04.206Z,22.99
2023-07-04T04:51:33.232Z,23.09
2023-07-04T04:54:02.656Z,23.30
2023-07-04T04:56:31.423Z,23.57
2023-07-04T04:59:00.115Z,23.83
2023-07-04T05:01:28.581Z,24.06
2023-07-04T05:03:57.676Z,24.29
2023-07-04T05:06:28.000Z,24.49
2023-07-04T05:08:58.050Z,24.68
2023-07-04T05:11:29.414Z,24.89
2023-07-04T05:13:57.899Z,25.08
2023-07-04T05:16:26.517Z,25.26
2023-07-04T05:18:55.354Z,25.45
2023-07-04T05:21:25.060Z,25.64
2023-07-04T05:23:54.188Z,25.83
2023-07-04T05:26:28.177Z,26.03
2023-07-04T05:28:59.975Z,26.24
2023-07-04T05:31:30.101Z,26.44
2023-07-04T05:33:58.696Z,26.62
2023-07-04T05:36:30.085Z,26.83
2023-07-04T05:39:01.528Z,27.01
2023-07-04T05:41:32.838Z,27.19
2023-07-04T05:44:04.628Z,27.39
2023-07-04T05:46:33.702Z,27.62
2023-07-04T05:49:03.111Z,27.84
2023-07-04T05:51:32.553Z,28.02
2023-07-04T05:54:00.984Z,28.21
2023-07-04T05:56:31.671Z,28.39
2023-07-04T05:59:02.346Z,28.54
2023-07-04T06:01:36.373Z,28.74
2023-07-04T06:04:25.087Z,28.96
2023-07-04T06:06:54.746Z,29.17
2023-07-04T06:09:26.664Z,29.36
2023-07-04T06:11:55.865Z,29.64
2023-07-04T06:14:26.996Z,29.79
2023-07-04T06:17:00.506Z,29.91
2023-07-04T06:19:29.196Z,30.06
2023-07-04T06:21:57.979Z,30.21
2023-07-04T06:24:27.057Z,30.37
2023-07-04T06:26:55.347Z,30.49
2023-07-04T06:29:23.765Z,30.63
2023-07-04T06:31:52.361Z,30.75
2023-07-04T06:34:20.813Z,30.98
2023-07-04T06:36:50.101Z,31.20
2023-07-04T06:39:20.060Z,31.26
2023-07-04T06:41:50.461Z,31.31
2023-07-04T06:44:21.228Z,31.32
2023-07-04T06:46:49.708Z,31.38
2023-07-04T06:49:18.365Z,31.49
2023-07-04T06:51:47.101Z,31.65
2023-07-04T06:54:15.712Z,31.75
2023-07-04T06:59:14.402Z,32.05
2023-07-04T07:01:43.722Z,32.16
2023-07-04T07:04:14.171Z,32.21
2023-07-04T07:06:42.656Z,32.35
2023-07-04T07:09:11.038Z,32.45
2023-07-04T07:11:41.867Z,32.56
2023-07-04T07:14:10.249Z,32.59
2023-07-04T07:16:38.711Z,32.61
2023-07-04T07:19:07.640Z,32.59
2023-07-04T07:21:38.134Z,32.65
2023-07-04T07:26:36.349Z,32.90
2023-07-04T07:29:05.054Z,33.04
2023-07-04T07:31:34.944Z,33.16
2023-07-04T07:34:05.853Z,33.31
2023-07-04T07:36:39.773Z,33.40
2023-07-04T07:40:08.202Z,33.52
2023-07-04T07:43:39.032Z,33.70
2023-07-04T07:47:07.323Z,33.86
2023-07-04T07:50:35.710Z,34.13
2023-07-04T07:54:03.895Z,34.24
2023-07-04T07:57:32.182Z,34.37
2023-07-04T08:01:00.365Z,34.52
2023-07-04T08:04:33.702Z,34.83
2023-07-04T08:07:43.271Z,34.87
2023-07-04T08:10:11.913Z,35.04
2023-07-04T08:12:40.488Z,35.03
2023-07-04T08:15:09.447Z,35.02
2023-07-04T08:17:39.117Z,35.10
2023-07-04T08:20:08.194Z,35.09
2023-07-04T08:22:36.571Z,35.23
2023-07-04T08:25:06.788Z,35.29
2023-07-04T08:27:35.321Z,35.39
2023-07-04T08:30:03.967Z,35.55
2023-07-04T08:32:32.590Z,35.61
2023-07-04T08:35:02.179Z,35.71
2023-07-04T08:37:30.544Z,35.82
2023-07-04T08:39:59.127Z,35.96
2023-07-04T08:42:29.764Z,36.01
2023-07-04T08:44:58.614Z,36.15
2023-07-04T08:47:27.252Z,36.02
2023-07-04T08:50:06.780Z,35.98
2023-07-04T08:53:03.405Z,35.97
2023-07-04T08:55:36.237Z,36.06
2023-07-04T08:58:04.945Z,36.22
2023-07-04T09:00:40.742Z,36.44
2023-07-04T09:03:25.466Z,36.58
2023-07-04T09:06:17.346Z,36.70
2023-07-04T09:09:11.225Z,36.67
2023-07-04T09:11:39.922Z,36.83
2023-07-04T09:14:15.665Z,37.07
2023-07-04T09:16:48.753Z,37.13
2023-07-04T09:19:20.870Z,37.29
2023-07-04T09:21:49.613Z,37.47
2023-07-04T09:24:18.032Z,37.47
2023-07-04T09:26:56.351Z,37.57
2023-07-04T09:29:27.178Z,37.68
2023-07-04T09:31:58.288Z,37.79
2023-07-04T09:34:47.581Z,37.87
2023-07-04T09:37:19.593Z,38.08
2023-07-04T09:39:56.115Z,38.15
2023-07-04T09:42:47.926Z,38.34
2023-07-04T09:45:23.912Z,38.45
2023-07-04T09:47:53.410Z,38.53
2023-07-04T09:50:32.577Z,38.77
2023-07-04T09:53:12.825Z,38.88
2023-07-04T09:55:42.395Z,38.60
2023-07-04T09:58:21.722Z,38.21
2023-07-04T10:01:12.250Z,37.95
2023-07-04T10:04:40.401Z,37.98
2023-07-04T10:08:20.171Z,38.15
2023-07-04T10:11:51.246Z,38.07
2023-07-04T10:15:19.553Z,38.29
2023-07-04T10:17:47.886Z,38.69
2023-07-04T10:20:16.660Z,38.88
2023-07-04T10:23:03.823Z,39.05
2023-07-04T10:25:32.147Z,39.02
2023-07-04T10:28:12.405Z,39.22
2023-07-04T10:30:45.169Z,39.36
2023-07-04T10:33:34.390Z,39.01
2023-07-04T10:36:03.193Z,38.51
2023-07-04T10:38:40.163Z,38.01
2023-07-04T10:41:33.504Z,37.88
2023-07-04T10:44:09.896Z,38.15
2023-07-04T10:46:50.024Z,38.49
2023-07-04T10:49:22.803Z,38.68
2023-07-04T10:52:03.679Z,38.51
2023-07-04T10:54:32.295Z,38.40
2023-07-04T10:57:11.633Z,38.40
2023-07-04T10:59:44.466Z,38.35
2023-07-04T11:02:29.156Z,38.35
2023-07-04T11:05:15.187Z,38.44
2023-07-04T11:07:45.712Z,38.71
2023-07-04T11:10:15.541Z,39.02
2023-07-04T11:12:44.411Z,39.31
2023-07-04T11:15:29.152Z,39.32
2023-07-04T11:17:58.205Z,39.26
2023-07-04T11:21:07.256Z,39.34
2023-07-04T11:23:50.944Z,39.59
2023-07-04T11:26:21.915Z,39.58
2023-07-04T11:29:16.759Z,39.81
2023-07-04T11:32:09.242Z,39.90
2023-07-04T11:35:18.630Z,39.57
2023-07-04T11:38:03.306Z,38.86
2023-07-04T11:40:42.075Z,38.41
2023-07-04T11:43:28.660Z,38.49
2023-07-04T11:45:58.483Z,38.80
2023-07-04T11:48:30.048Z,39.08
2023-07-04T11:51:06.967Z,39.32
2023-07-04T11:53:48.828Z,39.32
2023-07-04T11:56:25.506Z,39.10
2023-07-04T11:59:19.943Z,39.08
2023-07-04T12:01:57.437Z,39.13
2023-07-04T12:04:49.863Z,39.19
2023-07-04T12:07:34.806Z,39.41
2023-07-04T12:10:16.036Z,39.52
2023-07-04T12:12:45.440Z,39.40
2023-07-04T12:15:28.860Z,39.15
2023-07-04T12:18:00.927Z,38.54
2023-07-04T12:20:31.598Z,38.26
2023-07-04T12:23:03.382Z,38.19
2023-07-04T12:25:39.344Z,37.79
2023-07-04T12:28:11.009Z,37.75
2023-07-04T12:33:22.770Z,38.02
2023-07-04T12:35:56.578Z,38.21
2023-07-04T12:38:28.354Z,38.44
2023-07-04T12:40:59.105Z,38.64
2023-07-04T12:51:31.197Z,39.45
2023-07-04T12:54:03.128Z,39.56
2023-07-04T12:56:33.669Z,39.89
2023-07-04T12:59:02.026Z,40.26
2023-07-04T13:01:33.640Z,40.62
2023-07-04T13:04:11.412Z,40.97
2023-07-04T13:06:40.262Z,41.00
2023-07-04T13:09:09.064Z,40.66
2023-07-04T13:11:37.638Z,40.62
2023-07-04T13:14:12.446Z,40.64
2023-07-04T13:16:41.152Z,40.75
2023-07-04T13:19:12.441Z,40.95
2023-07-04T13:21:45.781Z,41.02
2023-07-04T13:27:14.189Z,41.25
2023-07-04T13:35:32.635Z,39.71
2023-07-04T13:40:33.154Z,39.32
2023-07-04T13:45:44.484Z,39.05
2023-07-04T13:48:13.144Z,39.19
2023-07-04T13:50:41.627Z,39.51
2023-07-04T13:55:41.661Z,39.81
2023-07-04T13:58:10.661Z,39.36
2023-07-04T14:05:39.677Z,38.69
2023-07-04T14:06:01.033Z,38.18
2023-07-04T14:08:31.159Z,38.15
2023-07-04T14:11:05.328Z,37.90
2023-07-04T14:13:34.555Z,37.88
2023-07-04T14:21:11.377Z,38.58
2023-07-04T14:23:40.543Z,38.92
2023-07-04T14:26:21.186Z,39.24
2023-07-04T14:28:51.657Z,39.54
2023-07-04T14:31:21.020Z,39.74
2023-07-04T14:33:51.592Z,39.88
2023-07-04T14:36:20.676Z,39.76
2023-07-04T14:38:49.281Z,39.73
2023-07-04T14:43:49.220Z,39.54
2023-07-04T14:46:17.739Z,39.30
2023-07-04T14:48:46.059Z,38.95
2023-07-04T14:51:15.510Z,38.73
2023-07-04T14:53:44.358Z,38.56
2023-07-04T14:56:15.415Z,38.34
2023-07-04T14:58:44.689Z,38.17
2023-07-04T15:01:19.032Z,38.18
2023-07-04T15:03:47.963Z,38.23
2023-07-04T15:06:17.534Z,38.17
2023-07-04T15:08:46.407Z,38.08
2023-07-04T15:11:15.001Z,37.89
2023-07-04T15:13:43.344Z,37.56
2023-07-04T15:16:11.886Z,37.20
2023-07-04T15:18:40.650Z,37.03
2023-07-04T15:21:10.366Z,36.91
2023-07-04T15:23:39.158Z,36.96
2023-07-04T15:26:24.924Z,37.09
2023-07-04T15:28:56.864Z,37.20
2023-07-04T15:31:26.329Z,37.21
2023-07-04T15:33:58.798Z,37.26
2023-07-04T15:36:28.244Z,37.31
2023-07-04T15:38:56.804Z,37.39
2023-07-04T15:41:27.270Z,37.45
2023-07-04T15:43:56.104Z,37.61
2023-07-04T15:46:27.270Z,37.76
2023-07-04T15:48:56.354Z,37.84
2023-07-04T15:51:25.755Z,37.87
2023-07-04T15:53:54.335Z,37.80
2023-07-04T15:56:23.722Z,37.74
2023-07-04T15:58:52.327Z,37.77
2023-07-04T16:01:21.203Z,37.72
2023-07-04T16:03:51.637Z,37.67
2023-07-04T16:06:22.480Z,37.58
2023-07-04T16:08:50.909Z,37.51
2023-07-04T16:11:20.714Z,37.49
2023-07-04T16:13:49.434Z,37.50
2023-07-04T16:16:18.482Z,37.49
2023-07-04T16:18:47.105Z,37.19
2023-07-04T16:21:15.737Z,36.74
2023-07-04T16:23:44.726Z,36.43
2023-07-04T16:26:13.514Z,36.23
2023-07-04T16:28:41.799Z,35.99
2023-07-04T16:31:13.071Z,35.75
2023-07-04T16:33:41.533Z,35.54
2023-07-04T16:36:11.102Z,35.57
2023-07-04T16:38:39.754Z,35.60
2023-07-04T16:41:11.619Z,35.71
2023-07-04T16:43:41.092Z,35.65
2023-07-04T16:46:09.627Z,35.58
2023-07-04T16:48:38.063Z,35.42
2023-07-04T16:51:07.010Z,35.34
2023-07-04T16:53:35.346Z,35.19
2023-07-04T16:56:04.231Z,35.11
2023-07-04T16:58:35.601Z,34.95
2023-07-04T17:01:04.599Z,34.91
2023-07-04T17:03:34.312Z,34.75
2023-07-04T17:06:06.029Z,34.54
2023-07-04T17:08:37.713Z,34.33
2023-07-04T17:11:09.325Z,34.02
2023-07-04T17:13:40.295Z,33.70
2023-07-04T17:16:10.850Z,33.34
2023-07-04T17:18:39.947Z,33.08
2023-07-04T17:21:09.525Z,32.76
2023-07-04T17:23:38.521Z,32.45
2023-07-04T17:26:07.199Z,32.13
2023-07-04T17:28:36.425Z,31.85
2023-07-04T17:31:07.878Z,31.60
2023-07-04T17:33:36.864Z,31.37
2023-07-04T17:36:09.377Z,31.14
2023-07-04T17:38:38.819Z,30.89
2023-07-04T17:41:13.103Z,30.70
2023-07-04T17:43:44.817Z,30.49
2023-07-04T17:46:14.156Z,30.31
2023-07-04T17:48:45.066Z,30.15
2023-07-04T17:51:17.658Z,30.01
2023-07-04T17:53:46.368Z,29.89
2023-07-04T17:56:19.424Z,29.79
2023-07-04T17:58:48.137Z,29.65
2023-07-04T18:01:19.367Z,29.55
2023-07-04T18:03:48.297Z,29.46
2023-07-04T18:06:18.106Z,29.32
2023-07-04T18:08:47.057Z,29.22
2023-07-04T18:11:19.336Z,29.11
2023-07-04T18:14:47.450Z,28.99
2023-07-04T18:17:18.073Z,28.84
2023-07-04T18:19:46.833Z,28.73
2023-07-04T18:22:15.432Z,28.63
2023-07-04T18:24:46.365Z,28.53
2023-07-04T18:27:14.686Z,28.47
2023-07-04T18:29:43.550Z,28.39
2023-07-04T18:32:12.030Z,28.30
2023-07-04T18:34:40.711Z,28.23
2023-07-04T18:37:09.289Z,28.14
2023-07-04T18:39:37.577Z,28.05
2023-07-04T18:42:06.785Z,27.98
2023-07-04T18:44:35.546Z,27.89
2023-07-04T18:47:04.337Z,27.80
2023-07-04T18:50:32.744Z,27.70
2023-07-04T18:57:53.988Z,27.48
2023-07-04T19:00:24.973Z,27.39
2023-07-04T19:02:53.512Z,27.32
2023-07-04T19:05:22.251Z,27.25
2023-07-04T19:07:53.041Z,27.20
2023-07-04T19:10:22.060Z,27.17
2023-07-04T19:12:50.510Z,27.13
2023-07-04T19:15:18.960Z,27.03
2023-07-04T19:17:52.003Z,26.90
2023-07-04T19:20:20.473Z,26.81
2023-07-04T19:22:51.453Z,26.66
2023-07-04T19:25:20.301Z,26.51
2023-07-04T19:27:48.792Z,26.38
2023-07-04T19:30:17.400Z,26.25
2023-07-04T19:32:45.665Z,26.15
2023-07-04T19:35:14.146Z,26.11
2023-07-04T19:37:44.256Z,26.05
2023-07-04T19:40:13.401Z,25.94
2023-07-04T19:42:41.727Z,25.84
2023-07-04T19:45:10.852Z,25.74
2023-07-04T19:47:39.492Z,25.63
2023-07-04T19:50:08.392Z,25.60
2023-07-04T19:52:36.698Z,25.57
2023-07-04T19:55:06.105Z,25.46
2023-07-04T19:57:34.576Z,25.34
2023-07-04T20:00:05.518Z,25.25
2023-07-04T20:02:41.590Z,25.19
2023-07-04T20:05:11.891Z,25.13
2023-07-04T20:07:40.689Z,25.07
2023-07-04T20:10:09.790Z,25.03
2023-07-04T20:12:37.974Z,24.98
2023-07-04T20:15:07.063Z,24.90
2023-07-04T20:17:37.410Z,24.79
2023-07-04T20:20:07.995Z,24.68
2023-07-04T20:22:36.294Z,24.60
2023-07-04T20:25:04.886Z,24.55
2023-07-04T20:27:33.371Z,24.49
2023-07-04T20:30:01.653Z,24.45
2023-07-04T20:32:30.280Z,24.40
2023-07-04T20:34:58.854Z,24.36
2023-07-04T20:37:27.403Z,24.33
2023-07-04T20:39:55.891Z,24.31
2023-07-04T20:42:24.399Z,24.30
2023-07-04T20:44:53.052Z,24.29
2023-07-04T20:47:21.331Z,24.27
2023-07-04T20:49:49.606Z,24.25
2023-07-04T20:52:18.137Z,24.21
2023-07-04T20:54:47.029Z,24.18
2023-07-04T20:57:15.392Z,24.12
2023-07-04T20:59:44.049Z,24.09
2023-07-04T21:02:12.535Z,24.07
2023-07-04T21:04:41.025Z,24.04
2023-07-04T21:07:09.496Z,24.01
2023-07-04T21:09:38.257Z,23.98
2023-07-04T21:12:07.389Z,23.93
2023-07-04T21:14:35.735Z,23.90
2023-07-04T21:17:04.571Z,23.86
2023-07-04T21:19:33.034Z,23.83
2023-07-04T21:22:01.317Z,23.79
2023-07-04T21:24:29.522Z,23.76
2023-07-04T21:27:00.240Z,23.74
2023-07-04T21:29:28.682Z,23.71
2023-07-04T21:31:57.073Z,23.67
2023-07-04T21:34:25.365Z,23.64
2023-07-04T21:36:54.983Z,23.61
2023-07-04T21:39:24.486Z,23.59
2023-07-04T21:41:52.969Z,23.59
2023-07-04T21:44:21.564Z,23.57
2023-07-04T21:46:49.913Z,23.55
2023-07-04T21:49:18.560Z,23.53
2023-07-04T21:51:46.900Z,23.46
2023-07-04T21:54:15.486Z,23.41
2023-07-04T21:56:43.755Z,23.37
2023-07-04T21:59:12.245Z,23.36
2023-07-04T22:01:41.175Z,23.35
2023-07-04T22:04:10.537Z,23.34
2023-07-04T22:06:39.561Z,23.30
2023-07-04T22:09:09.258Z,23.27
2023-07-04T22:11:38.038Z,23.24
2023-07-04T22:14:07.234Z,23.22
2023-07-04T22:16:36.653Z,23.18
2023-07-04T22:19:04.921Z,23.15
2023-07-04T22:21:33.440Z,23.12
2023-07-04T22:24:01.736Z,23.10
2023-07-04T22:26:30.407Z,23.07
2023-07-04T22:28:58.955Z,23.05
2023-07-04T22:31:27.463Z,23.03
2023-07-04T22:34:05.721Z,23.02
2023-07-04T22:36:35.038Z,23.00
2023-07-04T22:39:05.327Z,22.97
2023-07-04T22:41:34.480Z,22.97
2023-07-04T22:44:03.173Z,22.97
2023-07-04T22:46:31.623Z,22.97
2023-07-04T22:49:00.356Z,22.94
2023-07-04T22:51:28.739Z,22.87
2023-07-04T22:53:57.297Z,22.84
2023-07-04T22:56:25.993Z,22.81
2023-07-04T22:58:55.634Z,22.81
2023-07-04T23:01:26.070Z,22.80
2023-07-04T23:03:55.966Z,22.77
2023-07-04T23:06:24.318Z,22.72
2023-07-04T23:08:53.084Z,22.67
2023-07-04T23:11:21.589Z,22.65
2023-07-04T23:13:50.100Z,22.62
2023-07-04T23:16:19.681Z,22.59
2023-07-04T23:18:49.715Z,22.56
2023-07-04T23:21:19.559Z,22.53
2023-07-04T23:23:52.358Z,22.48
2023-07-04T23:26:26.955Z,22.45
2023-07-04T23:28:55.747Z,22.43
2023-07-04T23:31:24.344Z,22.41
2023-07-04T23:33:52.834Z,22.39
2023-07-04T23:36:21.596Z,22.38
2023-07-04T23:38:51.627Z,22.35
2023-07-04T23:41:20.882Z,22.32
2023-07-04T23:43:49.276Z,22.30
2023-07-04T23:46:22.134Z,22.28
2023-07-04T23:48:50.947Z,22.24
2023-07-04T23:51:19.347Z,22.21
2023-07-04T23:53:50.903Z,22.20
2023-07-04T23:56:19.973Z,22.19
2023-07-04T23:58:48.817Z,22.17
